Time;durP1;ratioP1;P1;durP2;ratioP2;P2;SDS_P1;SDS_P2;PMS_P1;PMS_P2;Temp;Humidity;BMP_temperature;BMP_pressure;BME280_temperature;BME280_humidity;BME280_pressure;Samples;Min_cycle;Max_cycle;Signal;HPM_P1;HPM_P2
2022/05/04 00:00:55;;;;;;;4.57;4.03;;;13.20;99.90;;;;;;4953718;28;20626;-47
2022/05/04 00:03:22;;;;;;;3.80;3.60;;;13.30;99.90;;;;;;4961568;28;20705;-46
2022/05/04 00:05:50;;;;;;;4.53;4.23;;;13.30;99.90;;;;;;5003979;28;20209;-46
2022/05/04 00:08:17;;;;;;;4.03;3.73;;;13.20;99.90;;;;;;4971037;28;20258;-46
2022/05/04 00:10:44;;;;;;;4.47;4.07;;;13.20;99.90;;;;;;4970921;28;20204;-47
2022/05/04 00:13:11;;;;;;;4.23;4.03;;;13.20;99.90;;;;;;5021540;23;20282;-54
2022/05/04 00:15:38;;;;;;;4.33;4.10;;;13.20;99.90;;;;;;5090613;28;20253;-54
2022/05/04 00:18:05;;;;;;;4.37;4.07;;;13.10;99.90;;;;;;5090427;28;20201;-54
2022/05/04 00:20:32;;;;;;;4.70;3.60;;;13.00;99.90;;;;;;5089444;28;20200;-54
2022/05/04 00:23:00;;;;;;;3.97;3.60;;;13.00;99.90;;;;;;5081749;28;20699;-54
2022/05/04 00:25:28;;;;;;;4.20;3.90;;;12.90;99.90;;;;;;5051228;28;20621;-54
2022/05/04 00:27:54;;;;;;;4.60;4.37;;;12.90;99.90;;;;;;5051394;28;20749;-55
2022/05/04 00:30:22;;;;;;;4.93;4.50;;;12.90;99.90;;;;;;5060537;28;20662;-54
2022/05/04 00:32:48;;;;;;;4.83;4.60;;;12.80;99.90;;;;;;5066576;28;20258;-54
2022/05/04 00:35:15;;;;;;;5.03;4.73;;;12.90;99.90;;;;;;5057077;28;20656;-53
2022/05/04 00:37:42;;;;;;;4.93;4.53;;;12.80;99.90;;;;;;5054318;28;20923;-53
2022/05/04 00:40:11;;;;;;;4.07;3.87;;;12.90;99.90;;;;;;5063078;28;20209;-53
2022/05/04 00:42:38;;;;;;;4.20;3.90;;;12.80;99.90;;;;;;5055071;28;20290;-53
2022/05/04 00:45:06;;;;;;;5.03;4.73;;;12.80;99.90;;;;;;5065213;28;20206;-54
2022/05/04 00:47:33;;;;;;;4.30;4.10;;;12.80;99.90;;;;;;5064819;28;20282;-55
2022/05/04 00:50:04;;;;;;;3.73;3.53;;;12.70;99.90;;;;;;5060082;28;20194;-55
2022/05/04 00:52:31;;;;;;;4.47;4.27;;;12.60;99.90;;;;;;5066304;28;20197;-54
2022/05/04 00:54:59;;;;;;;4.43;4.03;;;12.60;99.90;;;;;;5060023;28;20259;-55
2022/05/04 01:00:10;;;;;;;4.63;4.33;;;12.50;99.90;;;;;;5052108;28;20231;-55
2022/05/04 01:02:38;;;;;;;4.40;4.10;;;12.50;99.90;;;;;;5065989;28;20294;-55
2022/05/04 01:05:09;;;;;;;4.77;4.33;;;12.40;99.90;;;;;;5059637;28;20198;-55
2022/05/04 01:07:36;;;;;;;4.90;4.50;;;12.40;99.90;;;;;;5051081;28;20295;-55
2022/05/04 01:10:04;;;;;;;5.00;4.67;;;12.40;99.90;;;;;;5052653;28;20231;-55
2022/05/04 01:12:33;;;;;;;5.00;4.70;;;12.40;99.90;;;;;;5069509;28;20891;-54
2022/05/04 01:15:00;;;;;;;5.37;4.97;;;12.30;99.90;;;;;;5060479;28;20194;-55
2022/05/04 01:17:28;;;;;;;5.90;5.43;;;12.30;99.90;;;;;;5059709;28;20739;-54
2022/05/04 01:19:55;;;;;;;5.90;5.40;;;12.30;99.90;;;;;;5061298;28;20692;-55
2022/05/04 01:22:24;;;;;;;6.43;6.03;;;12.30;99.90;;;;;;5064282;28;20222;-54
2022/05/04 01:24:51;;;;;;;6.63;6.07;;;12.30;99.90;;;;;;5067901;28;20298;-55
2022/05/04 01:27:18;;;;;;;6.37;6.07;;;12.20;99.90;;;;;;5068611;28;20198;-55
2022/05/04 01:29:47;;;;;;;5.67;5.37;;;12.20;99.90;;;;;;5062776;28;20196;-53
2022/05/04 01:32:14;;;;;;;5.30;4.90;;;12.20;99.90;;;;;;5069240;28;20200;-53
2022/05/04 01:34:41;;;;;;;5.40;5.10;;;12.20;99.90;;;;;;5064743;28;20766;-53
2022/05/04 01:37:07;;;;;;;6.60;5.93;;;12.20;99.90;;;;;;5062398;28;20193;-53
2022/05/04 01:39:36;;;;;;;5.43;5.13;;;12.20;99.90;;;;;;5066399;28;20204;-53
2022/05/04 01:42:09;;;;;;;5.23;4.87;;;12.20;99.90;;;;;;5064161;28;20855;-53
2022/05/04 01:44:36;;;;;;;4.87;4.57;;;12.20;99.90;;;;;;5065121;28;20224;-53
2022/05/04 01:47:04;;;;;;;5.30;5.00;;;12.20;99.90;;;;;;5062585;28;20348;-53
2022/05/04 01:49:31;;;;;;;4.70;4.40;;;12.20;99.90;;;;;;5063068;28;20224;-53
2022/05/04 01:51:58;;;;;;;6.07;5.67;;;12.20;99.90;;;;;;5063873;28;20204;-53
2022/05/04 01:54:25;;;;;;;5.63;5.23;;;12.20;99.90;;;;;;5054215;28;20229;-53
2022/05/04 01:56:53;;;;;;;5.57;5.27;;;12.20;99.90;;;;;;5062114;28;20583;-53
2022/05/04 01:59:20;;;;;;;6.30;5.70;;;12.30;99.90;;;;;;5069405;28;20193;-53
2022/05/04 02:01:48;;;;;;;6.57;6.07;;;12.20;99.90;;;;;;5065239;28;20255;-53
2022/05/04 02:04:15;;;;;;;5.20;4.80;;;12.20;99.90;;;;;;5055613;28;20210;-53
2022/05/04 02:06:47;;;;;;;6.77;6.13;;;12.20;99.90;;;;;;5062522;28;20201;-53
2022/05/04 02:09:14;;;;;;;6.73;6.23;;;12.10;99.90;;;;;;5067082;28;20247;-53
2022/05/04 02:11:44;;;;;;;6.30;5.57;;;12.20;99.90;;;;;;5060843;28;20220;-53
2022/05/04 02:14:12;;;;;;;5.93;5.43;;;12.10;99.90;;;;;;5057311;28;20218;-53
2022/05/04 02:16:43;;;;;;;6.07;5.67;;;12.10;99.90;;;;;;5072914;28;20207;-53
2022/05/04 02:19:10;;;;;;;7.37;6.77;;;12.00;99.90;;;;;;5062942;28;20247;-53
2022/05/04 02:21:37;;;;;;;6.43;5.83;;;11.90;99.90;;;;;;5061882;28;20266;-53
2022/05/04 02:24:04;;;;;;;10.03;6.50;;;11.90;99.90;;;;;;5060315;28;20232;-53
2022/05/04 02:26:31;;;;;;;5.37;5.00;;;11.90;99.90;;;;;;5068058;28;20211;-53
2022/05/04 02:28:58;;;;;;;6.80;6.10;;;11.90;99.90;;;;;;5068924;28;20664;-53
2022/05/04 02:31:26;;;;;;;6.43;5.70;;;11.90;99.90;;;;;;5067766;28;20204;-53
2022/05/04 02:33:53;;;;;;;6.80;6.30;;;12.00;99.90;;;;;;5064237;28;20273;-53
2022/05/04 02:39:04;;;;;;;6.77;6.27;;;11.90;99.90;;;;;;5066019;28;20258;-53
2022/05/04 02:41:32;;;;;;;5.70;5.23;;;11.80;99.90;;;;;;5057037;28;20200;-53
2022/05/04 02:44:00;;;;;;;6.67;6.13;;;11.80;99.90;;;;;;5059809;28;20222;-53
2022/05/04 02:46:30;;;;;;;6.70;6.03;;;11.70;99.90;;;;;;5065827;28;20694;-53
2022/05/04 02:48:58;;;;;;;6.97;6.37;;;11.70;99.90;;;;;;5063433;28;20287;-53
2022/05/04 02:51:25;;;;;;;6.30;5.93;;;11.70;99.90;;;;;;5060322;28;20208;-52
2022/05/04 02:53:52;;;;;;;7.40;6.77;;;11.70;99.90;;;;;;5061241;28;20292;-53
2022/05/04 02:56:19;;;;;;;7.37;6.33;;;11.60;99.90;;;;;;5059606;28;20647;-53
2022/05/04 02:58:46;;;;;;;7.80;7.10;;;11.60;99.90;;;;;;5064238;28;20202;-53
2022/05/04 03:04:03;;;;;;;6.90;6.30;;;11.60;99.90;;;;;;5063327;28;20223;-53
2022/05/04 03:06:30;;;;;;;9.73;8.73;;;11.60;99.90;;;;;;5060609;28;20407;-54
2022/05/04 03:08:57;;;;;;;10.20;9.20;;;11.60;99.90;;;;;;5068642;28;20204;-53
2022/05/04 03:14:08;;;;;;;10.07;9.07;;;11.60;99.90;;;;;;5052819;28;20240;-53
2022/05/04 03:16:35;;;;;;;11.53;8.63;;;11.50;99.90;;;;;;5052622;28;20564;-52
2022/05/04 03:19:05;;;;;;;8.90;8.03;;;11.60;99.90;;;;;;5057579;28;20306;-53
2022/05/04 03:21:32;;;;;;;9.40;8.50;;;11.60;99.90;;;;;;5052629;28;20749;-53
2022/05/04 03:23:59;;;;;;;8.93;8.13;;;11.60;99.90;;;;;;5067780;28;20263;-53
2022/05/04 03:26:26;;;;;;;8.60;7.70;;;11.60;99.90;;;;;;5061588;28;20258;-53
2022/05/04 03:28:53;;;;;;;7.53;6.93;;;11.60;99.90;;;;;;5071597;28;20675;-53
2022/05/04 03:31:20;;;;;;;8.23;7.50;;;11.60;99.90;;;;;;5070206;28;20258;-53
2022/05/04 03:33:47;;;;;;;7.47;6.77;;;11.60;99.90;;;;;;5065835;28;20702;-54
2022/05/04 03:36:15;;;;;;;8.13;7.43;;;11.60;99.90;;;;;;5057593;28;20677;-53
2022/05/04 03:38:44;;;;;;;8.57;7.87;;;11.60;99.90;;;;;;5064261;28;20637;-52
2022/05/04 03:41:11;;;;;;;8.87;8.10;;;11.60;99.90;;;;;;5062727;28;20204;-54
2022/05/04 03:43:38;;;;;;;8.13;7.43;;;11.60;99.90;;;;;;5063912;28;20224;-53
2022/05/04 03:46:23;;;;;;;7.17;6.67;;;11.60;99.90;;;;;;5072349;28;20203;-53
2022/05/04 03:48:51;;;;;;;7.47;6.87;;;11.60;99.90;;;;;;5070791;28;20230;-53
2022/05/04 03:51:20;;;;;;;7.73;6.57;;;11.50;99.90;;;;;;5063477;28;20195;-52
2022/05/04 03:53:48;;;;;;;6.83;6.23;;;11.50;99.90;;;;;;5071681;28;20372;-53
2022/05/04 03:56:17;;;;;;;6.60;6.10;;;11.50;99.90;;;;;;5066174;28;20199;-53
2022/05/04 03:58:44;;;;;;;6.67;6.17;;;11.40;99.90;;;;;;5059751;28;20607;-53
2022/05/04 04:01:12;;;;;;;6.40;5.90;;;11.40;99.90;;;;;;5063396;28;20249;-52
2022/05/04 04:03:39;;;;;;;6.87;6.27;;;11.40;99.90;;;;;;5071852;28;20244;-53
2022/05/04 04:06:06;;;;;;;5.53;5.13;;;11.50;99.90;;;;;;5071583;28;20200;-53
2022/05/04 04:08:35;;;;;;;6.00;5.43;;;11.50;99.90;;;;;;5070629;28;20663;-54
2022/05/04 04:11:03;;;;;;;5.90;5.50;;;11.50;99.90;;;;;;5067186;28;20267;-54
2022/05/04 04:13:31;;;;;;;6.27;5.87;;;11.50;99.90;;;;;;5065304;28;20221;-53
2022/05/04 04:15:58;;;;;;;5.80;5.30;;;11.50;99.90;;;;;;5058718;28;20193;-54
2022/05/04 04:18:27;;;;;;;5.73;5.33;;;11.50;99.90;;;;;;5069746;28;20314;-54
2022/05/04 04:23:41;;;;;;;6.13;5.57;;;11.50;99.90;;;;;;5067130;28;20239;-53
2022/05/04 04:26:09;;;;;;;6.67;5.53;;;11.50;99.90;;;;;;5060692;28;20206;-54
2022/05/04 04:28:39;;;;;;;6.27;5.47;;;11.60;99.90;;;;;;5062440;28;20728;-54
2022/05/04 04:31:08;;;;;;;6.43;5.87;;;11.50;99.90;;;;;;5059787;28;20666;-54
2022/05/04 04:33:36;;;;;;;6.23;5.73;;;11.50;99.90;;;;;;5055315;28;20342;-54
2022/05/04 04:36:04;;;;;;;5.53;5.13;;;11.50;99.90;;;;;;5063969;28;20253;-54
2022/05/04 04:38:31;;;;;;;5.70;5.30;;;11.50;99.90;;;;;;5066507;28;20204;-54
2022/05/04 04:41:00;;;;;;;6.60;6.03;;;11.50;99.90;;;;;;5061607;28;20201;-54
2022/05/04 04:43:27;;;;;;;6.00;5.50;;;11.50;99.90;;;;;;5063519;28;20870;-54
2022/05/04 04:45:53;;;;;;;6.67;6.20;;;11.60;99.90;;;;;;5066421;28;20695;-54
2022/05/04 04:48:21;;;;;;;5.70;5.20;;;11.60;99.90;;;;;;5059467;28;20346;-54
2022/05/04 04:50:49;;;;;;;8.07;7.37;;;11.60;99.90;;;;;;5055615;28;20686;-53
2022/05/04 04:53:17;;;;;;;7.73;6.97;;;11.60;99.90;;;;;;5063550;28;20228;-54
2022/05/04 04:55:46;;;;;;;8.17;7.47;;;11.70;99.90;;;;;;5061636;28;20204;-53
2022/05/04 04:58:15;;;;;;;7.93;7.23;;;11.70;99.90;;;;;;5068566;28;20684;-54
2022/05/04 05:00:42;;;;;;;8.80;7.07;;;11.80;99.90;;;;;;5064980;28;20262;-53
2022/05/04 05:03:09;;;;;;;8.10;6.57;;;11.80;99.90;;;;;;5064834;28;20235;-54
2022/05/04 05:05:41;;;;;;;6.13;5.73;;;11.80;99.90;;;;;;5067309;28;20321;-54
2022/05/04 05:08:08;;;;;;;6.10;5.43;;;11.80;99.90;;;;;;5065872;28;20196;-54
2022/05/04 05:10:36;;;;;;;4.97;4.57;;;11.90;99.90;;;;;;5065154;28;20201;-53
2022/05/04 05:13:03;;;;;;;6.10;5.50;;;11.90;99.90;;;;;;5064803;28;20230;-54
2022/05/04 05:18:18;;;;;;;6.17;5.57;;;12.00;99.90;;;;;;5063765;28;20694;-54
2022/05/04 05:20:45;;;;;;;5.27;4.97;;;12.00;99.90;;;;;;5064250;28;20254;-54
2022/05/04 05:23:12;;;;;;;5.93;5.43;;;12.10;99.90;;;;;;5062139;28;20278;-54
2022/05/04 05:25:39;;;;;;;5.60;5.10;;;12.20;99.90;;;;;;5056569;28;20255;-54
2022/05/04 05:28:06;;;;;;;5.30;5.00;;;12.30;99.90;;;;;;5065197;28;20207;-54
2022/05/04 05:30:36;;;;;;;6.23;5.73;;;12.30;99.90;;;;;;5054906;28;20254;-54
2022/05/04 05:33:03;;;;;;;5.30;4.77;;;12.30;99.90;;;;;;5071987;28;20302;-54
2022/05/04 05:35:30;;;;;;;7.00;6.43;;;12.30;99.90;;;;;;5064784;28;20612;-54
2022/05/04 05:37:57;;;;;;;4.67;4.47;;;12.30;99.90;;;;;;5068059;28;20234;-54
2022/05/04 05:40:24;;;;;;;3.67;3.53;;;12.30;99.90;;;;;;5065650;28;20716;-55
2022/05/04 05:42:50;;;;;;;4.20;3.97;;;12.40;99.90;;;;;;5070566;28;20763;-54
2022/05/04 05:45:18;;;;;;;3.97;3.67;;;12.50;99.90;;;;;;5066006;28;20209;-54
2022/05/04 05:47:46;;;;;;;4.53;4.13;;;12.60;99.90;;;;;;5065630;28;20619;-54
2022/05/04 05:50:13;;;;;;;3.60;3.30;;;12.70;99.90;;;;;;5068151;28;20204;-54
2022/05/04 05:52:40;;;;;;;4.60;4.10;;;12.70;99.90;;;;;;5068963;28;20655;-55
2022/05/04 05:55:08;;;;;;;7.60;5.13;;;12.70;99.90;;;;;;5069794;28;20197;-54
2022/05/04 05:57:35;;;;;;;5.40;4.37;;;12.80;99.90;;;;;;5065785;28;20205;-55
2022/05/04 06:00:03;;;;;;;8.87;6.07;;;12.80;99.90;;;;;;5061618;28;20197;-55
2022/05/04 06:02:33;;;;;;;6.70;5.53;;;12.80;99.90;;;;;;5060090;28;20201;-55
2022/05/04 06:05:01;;;;;;;7.17;5.20;;;12.90;99.90;;;;;;5067987;28;20225;-55
2022/05/04 06:07:28;;;;;;;6.87;4.47;;;12.90;99.90;;;;;;5064812;28;20208;-55
2022/05/04 06:09:55;;;;;;;4.10;3.90;;;13.10;99.90;;;;;;5063847;28;20204;-55
2022/05/04 06:12:22;;;;;;;4.40;4.10;;;13.10;99.90;;;;;;5065204;28;20666;-55
2022/05/04 06:14:49;;;;;;;3.90;3.70;;;13.30;99.90;;;;;;5102464;22;20231;-47
2022/05/04 06:17:16;;;;;;;5.03;4.73;;;13.40;99.90;;;;;;5090852;28;20192;-47
2022/05/04 06:19:43;;;;;;;4.03;3.67;;;13.50;99.90;;;;;;5094171;28;20266;-47
2022/05/04 06:22:11;;;;;;;3.37;3.03;;;13.60;99.90;;;;;;5091573;28;20666;-47
2022/05/04 06:24:38;;;;;;;3.93;3.63;;;13.60;99.90;;;;;;5071476;28;20230;-47
2022/05/04 06:27:06;;;;;;;3.50;3.20;;;13.70;99.90;;;;;;5065309;28;20343;-46
2022/05/04 06:35:04;;;;;;;5.50;3.83;;;13.90;99.90;;;;;;5058770;28;20220;-47
2022/05/04 06:37:33;;;;;;;4.50;3.77;;;14.00;99.90;;;;;;5061980;28;20212;-47
2022/05/04 06:40:00;;;;;;;4.50;4.10;;;14.00;99.90;;;;;;5069010;28;20206;-47
2022/05/04 06:42:27;;;;;;;4.17;3.87;;;14.00;99.90;;;;;;5060835;28;20212;-47
2022/05/04 06:44:54;;;;;;;4.00;3.70;;;14.20;99.90;;;;;;5062502;28;20644;-47
2022/05/04 06:47:22;;;;;;;4.13;3.73;;;14.20;99.90;;;;;;5067211;28;20285;-48
2022/05/04 06:49:49;;;;;;;4.07;3.77;;;14.20;99.90;;;;;;5064289;28;20194;-48
2022/05/04 06:52:16;;;;;;;3.73;3.53;;;14.20;99.90;;;;;;5059504;28;20239;-48
2022/05/04 06:54:44;;;;;;;3.60;3.47;;;14.20;99.90;;;;;;5071748;28;20217;-47
2022/05/04 06:57:11;;;;;;;3.77;3.57;;;14.20;99.90;;;;;;5053576;28;20239;-47
2022/05/04 06:59:38;;;;;;;3.63;3.33;;;14.20;99.90;;;;;;5052928;28;20201;-48
2022/05/04 07:02:06;;;;;;;3.57;3.27;;;14.20;99.90;;;;;;5054895;28;20208;-47
2022/05/04 07:04:33;;;;;;;3.63;3.43;;;14.00;99.90;;;;;;5064888;28;20597;-47
2022/05/04 07:07:00;;;;;;;3.70;3.40;;;14.00;99.90;;;;;;5063931;28;20254;-47
2022/05/04 07:09:27;;;;;;;5.03;3.00;;;14.10;99.90;;;;;;5068616;28;20197;-47
2022/05/04 07:11:58;;;;;;;3.50;3.30;;;14.00;99.90;;;;;;5064004;28;20219;-47
2022/05/04 07:14:24;;;;;;;3.23;3.03;;;14.20;99.90;;;;;;5058378;28;20308;-47
2022/05/04 07:16:51;;;;;;;2.17;2.07;;;14.20;99.90;;;;;;5071871;28;20249;-48
2022/05/04 07:19:18;;;;;;;2.77;2.57;;;14.40;99.90;;;;;;5063635;28;20662;-48
2022/05/04 07:21:47;;;;;;;2.80;2.70;;;14.60;99.90;;;;;;5064898;28;20680;-46
2022/05/04 07:24:14;;;;;;;2.23;2.10;;;14.80;99.90;;;;;;5063351;28;20267;-47
2022/05/04 07:26:41;;;;;;;2.87;2.47;;;14.90;99.90;;;;;;5067533;28;20209;-47
2022/05/04 07:29:09;;;;;;;2.33;2.23;;;15.20;99.90;;;;;;5058452;28;20268;-47
2022/05/04 07:31:39;;;;;;;3.27;2.83;;;15.50;99.90;;;;;;5060711;28;20258;-47
2022/05/04 07:34:06;;;;;;;2.73;2.63;;;15.90;99.90;;;;;;5059282;28;20268;-47
2022/05/04 07:36:33;;;;;;;2.70;2.60;;;16.30;99.90;;;;;;5057460;28;20270;-47
2022/05/04 07:39:00;;;;;;;3.77;3.47;;;16.60;99.90;;;;;;5063254;28;20579;-48
2022/05/04 07:44:13;;;;;;;3.63;3.40;;;16.80;99.90;;;;;;5059946;28;20738;-47
2022/05/04 07:46:41;;;;;;;2.63;2.53;;;16.90;99.90;;;;;;5060391;28;20202;-48
2022/05/04 07:49:08;;;;;;;2.57;2.47;;;17.00;99.90;;;;;;5060565;28;20202;-47
2022/05/04 07:51:35;;;;;;;2.70;2.60;;;17.40;99.90;;;;;;5060900;28;20218;-47
2022/05/04 07:54:03;;;;;;;2.37;2.27;;;17.80;99.90;;;;;;5059172;28;20217;-47
2022/05/04 07:56:30;;;;;;;3.33;3.00;;;18.20;99.90;;;;;;5063513;28;20371;-47
2022/05/04 07:58:57;;;;;;;3.10;2.87;;;18.60;99.90;;;;;;5063186;28;20249;-47
2022/05/04 08:04:20;;;;;;;3.60;3.40;;;19.30;99.90;;;;;;5063180;28;20240;-47
2022/05/04 08:06:47;;;;;;;4.07;3.17;;;19.30;99.90;;;;;;5063078;28;20255;-48
2022/05/04 08:09:15;;;;;;;3.93;3.27;;;19.20;99.90;;;;;;5063917;28;20201;-48
2022/05/04 08:11:43;;;;;;;3.40;3.20;;;19.20;99.90;;;;;;5060175;28;20582;-48
2022/05/04 08:14:12;;;;;;;3.40;3.20;;;19.10;99.90;;;;;;5063696;28;20231;-47
2022/05/04 08:16:41;;;;;;;2.57;2.37;;;19.30;99.90;;;;;;5057267;28;20201;-47
2022/05/04 08:19:08;;;;;;;2.60;2.50;;;19.30;99.90;;;;;;5057712;28;20200;-48
2022/05/04 08:21:36;;;;;;;4.17;3.97;;;19.30;99.90;;;;;;5051410;28;20210;-48
2022/05/04 08:24:03;;;;;;;2.90;2.77;;;19.20;99.90;;;;;;5065796;28;20299;-48
2022/05/04 08:26:30;;;;;;;3.43;3.17;;;19.00;99.90;;;;;;5051724;28;20269;-47
2022/05/04 08:28:58;;;;;;;3.10;2.90;;;18.70;99.90;;;;;;5063396;28;20205;-47
2022/05/04 08:31:25;;;;;;;2.90;2.70;;;18.30;99.90;;;;;;5060174;28;20228;-48
2022/05/04 08:33:54;;;;;;;3.57;3.27;;;17.80;99.90;;;;;;5059645;28;20637;-48
2022/05/04 08:36:21;;;;;;;3.67;3.47;;;17.60;99.90;;;;;;5062051;28;20288;-48
2022/05/04 08:38:48;;;;;;;3.60;2.93;;;17.60;99.90;;;;;;5061142;28;20209;-47
2022/05/04 08:41:15;;;;;;;3.53;3.27;;;17.30;99.90;;;;;;5060040;28;20201;-47
2022/05/04 08:43:43;;;;;;;3.07;2.87;;;17.10;99.90;;;;;;5062138;28;20314;-48
2022/05/04 08:46:14;;;;;;;3.00;2.90;;;17.20;99.90;;;;;;5061719;28;20220;-47
2022/05/04 08:48:42;;;;;;;3.00;2.90;;;17.40;99.90;;;;;;5061361;28;20250;-47
2022/05/04 08:51:11;;;;;;;3.90;3.70;;;17.30;99.90;;;;;;5062051;28;20266;-48
2022/05/04 08:53:39;;;;;;;3.30;3.20;;;17.30;99.90;;;;;;5065581;28;20284;-47
2022/05/04 08:56:07;;;;;;;3.63;3.53;;;17.50;99.90;;;;;;5062048;28;20720;-47
2022/05/04 08:58:37;;;;;;;3.77;3.57;;;17.50;99.90;;;;;;5061485;28;20556;-47
2022/05/04 09:01:04;;;;;;;3.97;3.70;;;17.50;99.90;;;;;;5062894;28;20207;-47
2022/05/04 09:03:33;;;;;;;3.27;3.13;;;17.50;99.90;;;;;;5069683;28;20278;-47
2022/05/04 09:06:00;;;;;;;2.93;2.83;;;17.50;99.90;;;;;;5068434;28;20224;-47
2022/05/04 09:08:28;;;;;;;2.23;2.10;;;17.60;99.90;;;;;;5058843;28;20243;-47
2022/05/04 09:10:56;;;;;;;2.10;2.10;;;17.70;99.90;;;;;;5052078;28;20243;-47
2022/05/04 09:13:23;;;;;;;3.90;1.50;;;17.80;99.90;;;;;;5064259;28;20282;-47
2022/05/04 09:15:51;;;;;;;1.47;1.43;;;18.00;99.90;;;;;;5071121;28;20254;-48
2022/05/04 09:18:20;;;;;;;1.60;1.50;;;18.50;99.90;;;;;;5067622;28;20258;-47
2022/05/04 09:20:55;;;;;;;1.37;1.37;;;19.30;99.90;;;;;;5060988;28;20194;-48
2022/05/04 09:23:24;;;;;;;1.10;1.10;;;20.30;99.90;;;;;;5060938;28;20220;-48
2022/05/04 09:25:55;;;;;;;0.70;0.70;;;21.50;99.90;;;;;;5070663;28;20221;-48
2022/05/04 09:28:25;;;;;;;2.73;1.10;;;22.10;99.90;;;;;;5060940;28;20204;-47
2022/05/04 09:30:54;;;;;;;1.57;1.57;;;23.00;99.90;;;;;;5061276;28;20201;-48
2022/05/04 09:33:22;;;;;;;1.50;1.50;;;23.70;99.90;;;;;;5053575;28;20223;-47
2022/05/04 09:35:50;;;;;;;1.43;1.43;;;24.40;99.90;;;;;;5062638;28;20205;-48
2022/05/04 09:46:46;;;;;;;2.97;2.83;;;25.90;99.90;;;;;;5062892;28;20616;-48
2022/05/04 09:49:16;;;;;;;2.73;2.30;;;26.30;99.90;;;;;;5066757;28;20280;-48
2022/05/04 09:51:48;;;;;;;2.33;2.20;;;25.80;97.90;;;;;;5065497;28;20224;-47
2022/05/04 09:54:22;;;;;;;2.73;2.63;;;26.00;95.60;;;;;;5064786;28;20228;-48
2022/05/04 09:56:52;;;;;;;3.17;3.07;;;26.10;97.50;;;;;;5066315;28;20243;-48
2022/05/04 09:59:22;;;;;;;5.70;5.43;;;26.30;99.20;;;;;;5065239;28;20194;-48
2022/05/04 10:01:50;;;;;;;7.67;7.27;;;26.60;99.90;;;;;;5064626;28;20209;-47
2022/05/04 10:04:18;;;;;;;7.47;7.17;;;25.80;99.80;;;;;;5060578;28;20598;-47
2022/05/04 10:06:45;;;;;;;5.63;5.33;;;24.40;99.90;;;;;;5063209;28;20201;-48
2022/05/04 10:09:12;;;;;;;6.03;5.63;;;24.70;99.90;;;;;;5063073;28;20263;-47
2022/05/04 10:11:40;;;;;;;11.17;6.03;;;24.20;99.90;;;;;;5070434;28;20208;-47
2022/05/04 10:14:12;;;;;;;6.27;5.80;;;24.40;99.90;;;;;;5055963;28;20308;-48
2022/05/04 10:16:51;;;;;;;4.70;4.50;;;24.50;97.30;;;;;;5065993;28;20225;-48
2022/05/04 10:19:23;;;;;;;5.00;4.80;;;25.30;97.00;;;;;;5061030;28;20699;-48
2022/05/04 10:21:56;;;;;;;5.30;4.93;;;25.40;98.50;;;;;;5061837;28;20197;-47
2022/05/04 10:24:26;;;;;;;5.50;5.20;;;25.30;99.90;;;;;;5068220;28;20220;-48
2022/05/04 10:27:02;;;;;;;5.37;5.07;;;24.60;99.30;;;;;;5060868;28;20628;-48
2022/05/04 10:32:32;;;;;;;3.90;3.80;;;23.50;98.30;;;;;;5070373;28;20224;-48
2022/05/04 10:35:22;;;;;;;4.40;4.20;;;23.10;99.90;;;;;;5060695;28;20259;-48
2022/05/04 10:38:07;;;;;;;5.23;4.93;;;23.20;99.90;;;;;;5064484;28;20205;-48
2022/05/04 10:40:37;;;;;;;4.40;4.03;;;23.70;99.90;;;;;;5064705;28;21472;-48
2022/05/04 10:43:05;;;;;;;4.60;4.40;;;23.90;99.90;;;;;;5063307;28;20216;-48
2022/05/04 10:45:35;;;;;;;3.53;3.43;;;23.90;99.90;;;;;;5063158;28;20249;-48
2022/05/04 10:48:16;;;;;;;5.00;4.73;;;23.90;98.80;;;;;;5064187;28;20205;-47
2022/05/04 10:50:51;;;;;;;4.83;4.63;;;23.60;99.00;;;;;;5064446;28;20588;-47
2022/05/04 10:53:23;;;;;;;3.57;3.47;;;23.10;99.90;;;;;;5063797;28;20271;-47
2022/05/04 10:55:57;;;;;;;2.80;2.70;;;22.70;98.60;;;;;;5066752;28;20193;-48
2022/05/04 10:58:39;;;;;;;3.60;3.50;;;22.60;99.90;;;;;;5067769;28;20226;-47
2022/05/04 11:01:11;;;;;;;3.40;3.20;;;22.50;99.50;;;;;;5064641;28;20256;-48
2022/05/04 11:03:48;;;;;;;3.37;3.27;;;22.30;99.90;;;;;;5068400;28;20217;-47
2022/05/04 11:06:27;;;;;;;3.13;3.03;;;22.00;98.50;;;;;;5062570;28;20316;-47
2022/05/04 11:08:57;;;;;;;4.50;4.10;;;21.90;99.90;;;;;;5067504;28;20202;-47
2022/05/04 11:11:25;;;;;;;3.00;2.80;;;21.60;99.90;;;;;;5064972;28;20237;-48
2022/05/04 11:13:52;;;;;;;2.90;2.70;;;21.50;99.90;;;;;;5064354;28;20244;-48
2022/05/04 11:16:23;;;;;;;2.23;2.13;;;21.40;99.90;;;;;;5064775;28;20201;-48
2022/05/04 11:18:50;;;;;;;2.57;2.47;;;21.40;98.50;;;;;;5064151;28;20228;-48
2022/05/04 11:21:19;;;;;;;3.23;3.10;;;21.20;99.90;;;;;;5062457;28;20208;-47
2022/05/04 11:23:50;;;;;;;3.00;2.80;;;21.30;99.90;;;;;;5064438;28;20217;-48
2022/05/04 11:26:22;;;;;;;3.57;3.37;;;21.30;99.90;;;;;;5063971;28;20260;-48
2022/05/04 11:28:50;;;;;;;2.63;2.53;;;21.40;99.90;;;;;;5067308;28;20228;-48
2022/05/04 11:31:18;;;;;;;3.70;3.50;;;21.20;99.70;;;;;;5062044;28;20250;-48
2022/05/04 11:33:48;;;;;;;3.23;3.13;;;21.40;99.90;;;;;;5063906;28;20295;-48
2022/05/04 11:36:19;;;;;;;2.90;2.80;;;21.50;99.90;;;;;;5063491;28;20251;-48
2022/05/04 11:38:47;;;;;;;2.90;2.80;;;21.70;99.90;;;;;;5062814;28;20193;-47
2022/05/04 11:41:14;;;;;;;3.17;3.07;;;21.60;99.90;;;;;;5063050;28;20278;-48
2022/05/04 11:43:41;;;;;;;3.37;3.17;;;21.70;99.90;;;;;;5064049;28;20590;-48
2022/05/04 11:46:10;;;;;;;4.30;4.10;;;21.90;99.90;;;;;;5060851;28;20216;-49
2022/05/04 11:48:39;;;;;;;5.17;4.67;;;21.80;99.90;;;;;;5060561;28;20742;-48
2022/05/04 11:51:07;;;;;;;3.83;3.50;;;21.60;99.90;;;;;;5063482;28;20201;-46
2022/05/04 11:53:35;;;;;;;3.17;2.97;;;21.40;99.90;;;;;;5066062;28;20941;-48
2022/05/04 11:56:03;;;;;;;2.47;2.27;;;21.30;99.90;;;;;;5060058;28;20285;-47
2022/05/04 11:58:31;;;;;;;2.27;2.20;;;21.20;99.90;;;;;;5063756;28;20701;-47
2022/05/04 12:00:59;;;;;;;2.43;2.33;;;21.20;99.90;;;;;;5062597;28;20231;-47
2022/05/04 12:03:27;;;;;;;2.37;2.27;;;21.10;99.90;;;;;;5062977;28;20229;-46
2022/05/04 12:05:55;;;;;;;2.60;2.50;;;21.00;99.90;;;;;;5064669;28;20220;-47
2022/05/04 12:08:25;;;;;;;3.80;3.67;;;21.10;99.90;;;;;;5063486;28;20279;-47
2022/05/04 12:10:52;;;;;;;4.50;4.20;;;21.00;99.90;;;;;;5066156;28;20201;-47
2022/05/04 12:13:24;;;;;;;5.07;4.87;;;20.90;99.90;;;;;;5062522;28;20232;-47
2022/05/04 12:15:53;;;;;;;5.30;4.43;;;20.80;99.90;;;;;;5067440;28;20197;-47
2022/05/04 12:18:20;;;;;;;4.17;3.77;;;20.40;99.90;;;;;;5062657;28;20582;-47
2022/05/04 12:20:48;;;;;;;3.40;3.30;;;20.10;99.90;;;;;;5066762;28;20258;-46
2022/05/04 12:23:16;;;;;;;4.00;2.47;;;19.90;99.90;;;;;;5063052;28;20730;-50
2022/05/04 12:25:44;;;;;;;2.77;2.57;;;19.80;99.90;;;;;;5064372;22;20298;-55
2022/05/04 12:28:12;;;;;;;3.33;2.53;;;19.60;99.90;;;;;;5045314;28;20194;-55
2022/05/04 12:33:31;;;;;;;1.80;1.70;;;19.60;99.90;;;;;;5042729;28;20634;-55
2022/05/04 12:36:00;;;;;;;2.73;2.57;;;19.60;99.90;;;;;;5044091;28;20203;-55
2022/05/04 12:38:28;;;;;;;2.00;2.00;;;19.60;99.90;;;;;;5040027;28;20202;-55
2022/05/04 12:40:57;;;;;;;1.77;1.77;;;19.60;99.90;;;;;;5038056;28;20719;-55
2022/05/04 12:43:26;;;;;;;2.30;2.20;;;19.60;99.90;;;;;;5038557;28;20210;-55
2022/05/04 12:45:56;;;;;;;2.50;2.30;;;19.70;99.90;;;;;;5043471;28;20217;-55
2022/05/04 12:48:25;;;;;;;3.27;2.13;;;19.70;99.90;;;;;;5041985;28;20216;-55
2022/05/04 12:50:54;;;;;;;1.97;1.97;;;19.50;99.90;;;;;;5039676;28;21806;-52
2022/05/04 12:53:21;;;;;;;2.13;1.83;;;19.50;99.90;;;;;;5038635;28;20703;-55
2022/05/04 12:58:35;;;;;;;1.77;1.37;;;19.60;99.90;;;;;;5057410;28;20744;-52
2022/05/04 13:01:02;;;;;;;1.60;1.50;;;19.70;99.90;;;;;;5060675;28;20202;-54
2022/05/04 13:03:29;;;;;;;1.97;1.73;;;19.70;99.90;;;;;;5042088;28;20206;-54
2022/05/04 13:05:56;;;;;;;1.27;1.27;;;19.90;99.90;;;;;;5039140;28;20213;-54
2022/05/04 13:08:24;;;;;;;5.63;1.80;;;20.00;99.90;;;;;;5038631;28;20267;-55
2022/05/04 13:10:51;;;;;;;1.53;1.50;;;20.30;99.90;;;;;;5040311;28;20677;-54
2022/05/04 13:13:22;;;;;;;1.63;1.50;;;20.40;99.90;;;;;;5039027;28;20197;-55
2022/05/04 13:15:51;;;;;;;2.30;2.20;;;20.40;99.90;;;;;;5037377;28;20605;-55
2022/05/04 13:18:18;;;;;;;2.00;1.90;;;20.50;99.90;;;;;;5038328;28;20201;-55
2022/05/04 13:20:46;;;;;;;1.70;1.60;;;20.60;99.90;;;;;;5041279;28;20261;-55
2022/05/04 13:23:13;;;;;;;4.47;1.80;;;20.30;99.90;;;;;;5049742;28;20247;-55
2022/05/04 13:25:40;;;;;;;1.33;1.33;;;20.30;99.90;;;;;;5044641;28;20221;-55
2022/05/04 13:28:07;;;;;;;2.00;1.90;;;20.00;99.90;;;;;;5043268;28;20205;-55
2022/05/04 13:30:34;;;;;;;1.50;1.50;;;19.90;99.90;;;;;;5047767;28;20267;-55
2022/05/04 13:33:03;;;;;;;2.70;1.73;;;19.80;99.90;;;;;;5044600;28;20198;-53
2022/05/04 13:35:31;;;;;;;2.03;2.03;;;19.70;99.90;;;;;;5046117;28;20222;-55